Nyk Olympus — 3EOS7 — position and weather

sailwx.info

Track history (hours):
 
Tides and Currents Weather Stations Pressure Air Temp Water Temp Dewpoint Dewpoint Depression Visibility Wind Speed Wind Dir Waves Ship Positions

Nyk Olympus

Last reported at 2015-Aug-25 13:34 UTC. Time now 2015-Sep-04 21:09 UTC.
Position N 02°43' E 101°15'.
Warning: this ship's position is 10 days out of date.

Length 335 m; draft 13 m.

Type: Other ship. MMSI: 372478000.

Date/timePositionNaut miles runAvg speedWind from/ knotsBaromVisibWave heightAir tempDewpointWater temp
2015-Aug-25 13:34N 02°43' E 101°15'4321.6
2015-Aug-25 11:33N 02°19' E 101°51'12520.5
2015-Aug-25 05:28N 01°12' E 103°36'1517.0
2015-Aug-25 04:33N 01°12' E 103°51'4 3.6
2015-Aug-25 03:29N 01°16' E 103°50'0 0.0
2015-Aug-25 02:32N 01°16' E 103°50'0 0.0
2015-Aug-25 01:32N 01°16' E 103°50'0 0.0
2015-Aug-25 00:29N 01°16' E 103°50'0 0.0
2015-Aug-24 23:29N 01°16' E 103°50'0 0.0
2015-Aug-24 22:29N 01°16' E 103°50'0 0.0
2015-Aug-24 21:32N 01°16' E 103°50'0 0.0
2015-Aug-24 20:29N 01°16' E 103°50'0 0.0
2015-Aug-24 19:29N 01°16' E 103°50'0 0.0
2015-Aug-24 18:29N 01°16' E 103°50'0 0.0
2015-Aug-24 17:32N 01°16' E 103°50'0 0.0
2015-Aug-24 16:32N 01°16' E 103°50'0 0.0
2015-Aug-24 15:32N 01°16' E 103°50'0 0.0
2015-Aug-24 14:32N 01°16' E 103°50'0 0.0
2015-Aug-24 13:32N 01°16' E 103°50'0 0.0
2015-Aug-24 12:32N 01°16' E 103°50'0 0.0
2015-Aug-24 11:32N 01°16' E 103°50'0 0.0
2015-Aug-24 10:29N 01°16' E 103°50'0 0.0
2015-Aug-24 09:32N 01°16' E 103°50'0 0.0
2015-Aug-24 08:32N 01°16' E 103°50'0 0.0
2015-Aug-24 07:29N 01°16' E 103°50'0 0.0
2015-Aug-24 06:29N 01°16' E 103°50'0 0.0
2015-Aug-24 05:32N 01°16' E 103°50'0 0.0
2015-Aug-24 04:26N 01°16' E 103°50'0 0.0
2015-Aug-24 03:29N 01°16' E 103°50'0 0.0
2015-Aug-24 02:29N 01°16' E 103°50'0 0.0
2015-Aug-24 01:29N 01°16' E 103°50'0 0.0
2015-Aug-24 00:29N 01°16' E 103°50'0 0.0
2015-Aug-23 23:29N 01°16' E 103°50'0 0.0
2015-Aug-23 22:32N 01°16' E 103°50'0 0.0
2015-Aug-23 21:29N 01°16' E 103°50'0 0.0
2015-Aug-23 20:29N 01°16' E 103°50'0 0.0
2015-Aug-23 19:32N 01°16' E 103°50'0 0.0
2015-Aug-23 18:34N 01°16' E 103°50'1 1.1
2015-Aug-23 17:34N 01°15' E 103°51'4 4.3
2015-Aug-23 16:34N 01°14' E 103°56'9 9.0
2015-Aug-23 15:34N 01°16' E 104°04'1614.6
2015-Aug-23 14:28N 01°19' E 104°20'  
2015-Aug-18 12:25N 21°54' E 114°24'2910.2
2015-Aug-18 09:32N 22°20' E 114°07'0 0.3
2015-Aug-18 08:28N 22°20' E 114°08'0 0.0
2015-Aug-18 04:16N 22°20' E 114°08'0 0.0
2015-Aug-18 02:25N 22°20' E 114°08'0 0.0
2015-Aug-18 01:13N 22°20' E 114°08'0 0.0
2015-Aug-18 00:19N 22°20' E 114°08'0 0.0
2015-Aug-17 23:16N 22°20' E 114°08'0 0.0
2015-Aug-17 22:31N 22°20' E 114°08'0 0.0
2015-Aug-17 21:31N 22°20' E 114°08'0 0.0
2015-Aug-17 20:28N 22°20' E 114°08'0 0.0
2015-Aug-17 19:31N 22°20' E 114°08'0 0.0
2015-Aug-17 18:28N 22°20' E 114°08'0 0.0
2015-Aug-17 17:31N 22°20' E 114°08'0 0.0
2015-Aug-17 16:31N 22°20' E 114°08'7 5.6
2015-Aug-17 15:11N 22°13' E 114°10'1015.8
2015-Aug-17 14:33N 22°09' E 114°20'1918.8
2015-Aug-17 13:31N 22°11' E 114°41'13718.7
2015-Aug-17 06:11N 22°54' E 117°02'1518.8
2015-Aug-17 05:23N 23°03' E 117°15'3518.0
2015-Aug-17 03:25N 23°29' E 117°41'1617.3
2015-Aug-17 02:28N 23°39' E 117°55'1718.0
2015-Aug-17 01:33N 23°48' E 118°11'2618.0
2015-Aug-17 00:07N 24°01' E 118°35'3017.7
2015-Aug-16 22:27N 24°16' E 119°03'  
Track history (hours):
 
Tides and Currents Weather Stations Pressure Air Temp Water Temp Dewpoint Dewpoint Depression Visibility Wind Speed Wind Dir Waves Ship Positions

Nyk Olympus

Last reported at 2015-Aug-25 13:34 UTC. Time now 2015-Sep-04 21:09 UTC.
Position N 02°43' E 101°15'.
Warning: this ship's position is 10 days out of date.

Length 335 m; draft 13 m.

Type: Other ship. MMSI: 372478000.

Date/timePositionNaut miles runAvg speedWind from/ knotsBaromVisibWave heightAir tempDewpointWater temp
2015-Aug-25 13:34N 02°43' E 101°15'4321.6
2015-Aug-25 11:33N 02°19' E 101°51'12520.5
2015-Aug-25 05:28N 01°12' E 103°36'1517.0
2015-Aug-25 04:33N 01°12' E 103°51'4 3.6
2015-Aug-25 03:29N 01°16' E 103°50'0 0.0
2015-Aug-25 02:32N 01°16' E 103°50'0 0.0
2015-Aug-25 01:32N 01°16' E 103°50'0 0.0
2015-Aug-25 00:29N 01°16' E 103°50'0 0.0
2015-Aug-24 23:29N 01°16' E 103°50'0 0.0
2015-Aug-24 22:29N 01°16' E 103°50'0 0.0
2015-Aug-24 21:32N 01°16' E 103°50'0 0.0
2015-Aug-24 20:29N 01°16' E 103°50'0 0.0
2015-Aug-24 19:29N 01°16' E 103°50'0 0.0
2015-Aug-24 18:29N 01°16' E 103°50'0 0.0
2015-Aug-24 17:32N 01°16' E 103°50'0 0.0
2015-Aug-24 16:32N 01°16' E 103°50'0 0.0
2015-Aug-24 15:32N 01°16' E 103°50'0 0.0
2015-Aug-24 14:32N 01°16' E 103°50'0 0.0
2015-Aug-24 13:32N 01°16' E 103°50'0 0.0
2015-Aug-24 12:32N 01°16' E 103°50'0 0.0
2015-Aug-24 11:32N 01°16' E 103°50'0 0.0
2015-Aug-24 10:29N 01°16' E 103°50'0 0.0
2015-Aug-24 09:32N 01°16' E 103°50'0 0.0
2015-Aug-24 08:32N 01°16' E 103°50'0 0.0
2015-Aug-24 07:29N 01°16' E 103°50'0 0.0
2015-Aug-24 06:29N 01°16' E 103°50'0 0.0
2015-Aug-24 05:32N 01°16' E 103°50'0 0.0
2015-Aug-24 04:26N 01°16' E 103°50'0 0.0
2015-Aug-24 03:29N 01°16' E 103°50'0 0.0
2015-Aug-24 02:29N 01°16' E 103°50'0 0.0
2015-Aug-24 01:29N 01°16' E 103°50'0 0.0
2015-Aug-24 00:29N 01°16' E 103°50'0 0.0
2015-Aug-23 23:29N 01°16' E 103°50'0 0.0
2015-Aug-23 22:32N 01°16' E 103°50'0 0.0
2015-Aug-23 21:29N 01°16' E 103°50'0 0.0
2015-Aug-23 20:29N 01°16' E 103°50'0 0.0
2015-Aug-23 19:32N 01°16' E 103°50'0 0.0
2015-Aug-23 18:34N 01°16' E 103°50'1 1.1
2015-Aug-23 17:34N 01°15' E 103°51'4 4.3
2015-Aug-23 16:34N 01°14' E 103°56'9 9.0
2015-Aug-23 15:34N 01°16' E 104°04'1614.6
2015-Aug-23 14:28N 01°19' E 104°20'  
2015-Aug-18 12:25N 21°54' E 114°24'2910.2
2015-Aug-18 09:32N 22°20' E 114°07'0 0.3
2015-Aug-18 08:28N 22°20' E 114°08'0 0.0
2015-Aug-18 04:16N 22°20' E 114°08'0 0.0
2015-Aug-18 02:25N 22°20' E 114°08'0 0.0
2015-Aug-18 01:13N 22°20' E 114°08'0 0.0
2015-Aug-18 00:19N 22°20' E 114°08'0 0.0
2015-Aug-17 23:16N 22°20' E 114°08'0 0.0
2015-Aug-17 22:31N 22°20' E 114°08'0 0.0
2015-Aug-17 21:31N 22°20' E 114°08'0 0.0
2015-Aug-17 20:28N 22°20' E 114°08'0 0.0
2015-Aug-17 19:31N 22°20' E 114°08'0 0.0
2015-Aug-17 18:28N 22°20' E 114°08'0 0.0
2015-Aug-17 17:31N 22°20' E 114°08'0 0.0
2015-Aug-17 16:31N 22°20' E 114°08'7 5.6
2015-Aug-17 15:11N 22°13' E 114°10'1015.8
2015-Aug-17 14:33N 22°09' E 114°20'1918.8
2015-Aug-17 13:31N 22°11' E 114°41'13718.7
2015-Aug-17 06:11N 22°54' E 117°02'1518.8
2015-Aug-17 05:23N 23°03' E 117°15'3518.0
2015-Aug-17 03:25N 23°29' E 117°41'1617.3
2015-Aug-17 02:28N 23°39' E 117°55'1718.0
2015-Aug-17 01:33N 23°48' E 118°11'2618.0
2015-Aug-17 00:07N 24°01' E 118°35'3017.7
2015-Aug-16 22:27N 24°16' E 119°03'  

Dump ship's entire track history